Pecs, Hungary

12:19 AM CEST on August 28, 2016 (GMT +0200)
Pécs | | Change Station

Elev 0 ft 46.09 °N, 18.21 °E | Updated 6 minutes ago

Clear
Clear
70.9 °F
Feels Like 76 °F
N
0.6
Wind Variable Wind from SE
Gusts 1.9 mph

Today
High -- | Low -- °F
--% Chance of Precip.
Yesterday
High -- | Low -- °F
Precip. -- in
Pressure 30.12 in
Visibility -9999.0 miles
Clouds
Heat Index 76 °F
Dew Point 56 °F
Humidity 60%
Rainfall in
Snow Depth Not available.
6:03 AM 7:32 PM
Waning Crescent, 21% visible
METAR LDOS 272000Z 15003KT CAVOK 22/15 Q1020
Pressure 30.12 in
Visibility -9999.0 miles
Clouds
Heat Index 76 °F
Dew Point 56 °F
Humidity 60%
Rainfall in
Snow Depth Not available.
6:03 AM 7:32 PM
Waning Crescent, 21% visible
METAR LDOS 272000Z 15003KT CAVOK 22/15 Q1020

10-Day Weather Forecast

×

Almanac

Astronomy

Aug. 28, 2016 Rise Set
Actual Time
Civil Twilight
Nautical Twilight
Astronomical Twilight
Moon
Length of Visible Light
Length of Day
Tomorrow will be .
, % of the Moon is Illuminated

Today's Extremes

Country Highs Country Lows

Community

WunderPhotos

Upload Photos

1,935,455 photos uploaded!

WunderBlog® & News

Nearby

Air Quality

  Air Quality AQ Index Pollutant
Not available.

Snow Depth

Station Depth Elevation

Earthquake Activity

City Distance Mag. Time & Date
Minimum magnitude displayed is 2.5.

Coastal Water Temperatures

Place Temperature

Stations

Nearby Weather Stations

Station Location Temp. Windchill Dew Point Humidity Wind Precip. Elev Updated Type